sensor_id;sensor_type;location;lat;lon;timestamp;temperature;humidity
8820;DHT22;4446;50.876;4.736;2023-04-03T00:00:49;0.10;99.90
8820;DHT22;4446;50.876;4.736;2023-04-03T00:03:16;0.10;99.90
8820;DHT22;4446;50.876;4.736;2023-04-03T00:05:45;0.10;99.90
8820;DHT22;4446;50.876;4.736;2023-04-03T00:08:12;0.00;99.90
8820;DHT22;4446;50.876;4.736;2023-04-03T00:10:39;0.00;99.90
8820;DHT22;4446;50.876;4.736;2023-04-03T00:13:07;0.00;99.90
8820;DHT22;4446;50.876;4.736;2023-04-03T00:15:35;0.00;99.90
8820;DHT22;4446;50.876;4.736;2023-04-03T00:18:02;0.00;99.90
8820;DHT22;4446;50.876;4.736;2023-04-03T00:20:30;0.00;99.90
8820;DHT22;4446;50.876;4.736;2023-04-03T00:22:58;-0.10;99.90
8820;DHT22;4446;50.876;4.736;2023-04-03T00:25:26;0.00;99.90
8820;DHT22;4446;50.876;4.736;2023-04-03T00:27:53;-0.10;99.90
8820;DHT22;4446;50.876;4.736;2023-04-03T00:30:21;-0.10;99.90
8820;DHT22;4446;50.876;4.736;2023-04-03T00:32:48;-0.10;99.90
8820;DHT22;4446;50.876;4.736;2023-04-03T00:35:15;-0.10;99.90
8820;DHT22;4446;50.876;4.736;2023-04-03T00:37:43;0.00;99.90
8820;DHT22;4446;50.876;4.736;2023-04-03T00:40:13;0.00;99.90
8820;DHT22;4446;50.876;4.736;2023-04-03T00:42:41;0.00;99.90
8820;DHT22;4446;50.876;4.736;2023-04-03T00:45:25;0.00;99.90
8820;DHT22;4446;50.876;4.736;2023-04-03T00:47:53;0.00;99.90
8820;DHT22;4446;50.876;4.736;2023-04-03T00:50:21;0.00;99.90
8820;DHT22;4446;50.876;4.736;2023-04-03T00:52:48;0.00;99.90
8820;DHT22;4446;50.876;4.736;2023-04-03T00:55:17;0.00;99.90
8820;DHT22;4446;50.876;4.736;2023-04-03T00:57:44;-0.10;99.90
8820;DHT22;4446;50.876;4.736;2023-04-03T01:00:15;0.00;99.90
8820;DHT22;4446;50.876;4.736;2023-04-03T01:02:43;-0.10;99.90
8820;DHT22;4446;50.876;4.736;2023-04-03T01:05:10;-0.10;99.90
8820;DHT22;4446;50.876;4.736;2023-04-03T01:07:38;-0.10;99.90
8820;DHT22;4446;50.876;4.736;2023-04-03T01:10:10;-0.10;99.90
8820;DHT22;4446;50.876;4.736;2023-04-03T01:12:42;-0.10;99.90
8820;DHT22;4446;50.876;4.736;2023-04-03T01:15:11;0.00;99.90
8820;DHT22;4446;50.876;4.736;2023-04-03T01:17:41;0.00;99.90
8820;DHT22;4446;50.876;4.736;2023-04-03T01:25:56;0.20;99.90
8820;DHT22;4446;50.876;4.736;2023-04-03T01:28:27;0.30;99.90
8820;DHT22;4446;50.876;4.736;2023-04-03T01:31:00;0.30;99.90
8820;DHT22;4446;50.876;4.736;2023-04-03T01:33:30;0.30;99.90
8820;DHT22;4446;50.876;4.736;2023-04-03T01:35:57;0.30;99.90
8820;DHT22;4446;50.876;4.736;2023-04-03T01:38:24;0.20;99.90
8820;DHT22;4446;50.876;4.736;2023-04-03T01:40:51;0.20;99.90
8820;DHT22;4446;50.876;4.736;2023-04-03T01:43:18;0.20;99.90
8820;DHT22;4446;50.876;4.736;2023-04-03T01:45:45;0.10;99.90
8820;DHT22;4446;50.876;4.736;2023-04-03T01:48:15;0.10;99.90
8820;DHT22;4446;50.876;4.736;2023-04-03T01:50:43;0.00;99.90
8820;DHT22;4446;50.876;4.736;2023-04-03T01:53:10;0.00;99.90
8820;DHT22;4446;50.876;4.736;2023-04-03T01:55:37;0.00;99.90
8820;DHT22;4446;50.876;4.736;2023-04-03T01:58:04;0.00;99.90
8820;DHT22;4446;50.876;4.736;2023-04-03T02:00:31;-0.10;99.90
8820;DHT22;4446;50.876;4.736;2023-04-03T02:02:57;-0.20;99.90
8820;DHT22;4446;50.876;4.736;2023-04-03T02:05:25;-0.30;99.90
8820;DHT22;4446;50.876;4.736;2023-04-03T02:07:53;-0.30;99.90
8820;DHT22;4446;50.876;4.736;2023-04-03T02:10:20;-0.40;99.90
8820;DHT22;4446;50.876;4.736;2023-04-03T02:12:47;-0.50;99.90
8820;DHT22;4446;50.876;4.736;2023-04-03T02:15:14;-0.50;99.90
8820;DHT22;4446;50.876;4.736;2023-04-03T02:17:41;-0.50;99.90
8820;DHT22;4446;50.876;4.736;2023-04-03T02:20:08;-0.60;99.90
8820;DHT22;4446;50.876;4.736;2023-04-03T02:22:35;-0.60;99.90
8820;DHT22;4446;50.876;4.736;2023-04-03T02:25:04;-0.60;99.90
8820;DHT22;4446;50.876;4.736;2023-04-03T02:27:31;-0.70;99.90
8820;DHT22;4446;50.876;4.736;2023-04-03T02:29:58;-0.70;99.90
8820;DHT22;4446;50.876;4.736;2023-04-03T02:32:25;-0.70;99.90
8820;DHT22;4446;50.876;4.736;2023-04-03T02:34:52;-0.80;99.90
8820;DHT22;4446;50.876;4.736;2023-04-03T02:37:18;-0.80;99.90
8820;DHT22;4446;50.876;4.736;2023-04-03T02:39:46;-0.80;99.90
8820;DHT22;4446;50.876;4.736;2023-04-03T02:42:14;-0.80;99.90
8820;DHT22;4446;50.876;4.736;2023-04-03T02:44:41;-0.80;99.90
8820;DHT22;4446;50.876;4.736;2023-04-03T02:47:08;-0.90;99.90
8820;DHT22;4446;50.876;4.736;2023-04-03T02:49:35;-0.90;99.90
8820;DHT22;4446;50.876;4.736;2023-04-03T02:52:02;-0.90;99.90
8820;DHT22;4446;50.876;4.736;2023-04-03T02:54:29;-0.90;99.90
8820;DHT22;4446;50.876;4.736;2023-04-03T02:56:56;-1.00;99.90
8820;DHT22;4446;50.876;4.736;2023-04-03T02:59:25;-1.00;99.90
8820;DHT22;4446;50.876;4.736;2023-04-03T03:01:52;-1.00;99.90
8820;DHT22;4446;50.876;4.736;2023-04-03T03:04:19;-1.00;99.90
8820;DHT22;4446;50.876;4.736;2023-04-03T03:06:46;-1.00;99.90
8820;DHT22;4446;50.876;4.736;2023-04-03T03:09:13;-1.10;99.90
8820;DHT22;4446;50.876;4.736;2023-04-03T03:11:40;-1.10;99.90
8820;DHT22;4446;50.876;4.736;2023-04-03T03:14:07;-1.10;99.90
8820;DHT22;4446;50.876;4.736;2023-04-03T03:16:36;-1.10;99.90
8820;DHT22;4446;50.876;4.736;2023-04-03T03:19:03;-1.10;99.90
8820;DHT22;4446;50.876;4.736;2023-04-03T03:21:30;-1.20;99.90
8820;DHT22;4446;50.876;4.736;2023-04-03T03:23:57;-1.20;99.90
8820;DHT22;4446;50.876;4.736;2023-04-03T03:26:24;-1.20;99.90
8820;DHT22;4446;50.876;4.736;2023-04-03T03:28:51;-1.20;99.90
8820;DHT22;4446;50.876;4.736;2023-04-03T03:31:18;-1.20;99.90
8820;DHT22;4446;50.876;4.736;2023-04-03T03:33:47;-1.20;99.90
8820;DHT22;4446;50.876;4.736;2023-04-03T03:36:14;-1.20;99.90
8820;DHT22;4446;50.876;4.736;2023-04-03T03:38:41;-1.20;99.90
8820;DHT22;4446;50.876;4.736;2023-04-03T03:41:08;-1.20;99.90
8820;DHT22;4446;50.876;4.736;2023-04-03T03:43:35;-1.10;99.90
8820;DHT22;4446;50.876;4.736;2023-04-03T03:46:01;-1.10;99.90
8820;DHT22;4446;50.876;4.736;2023-04-03T03:48:28;-1.10;99.90
8820;DHT22;4446;50.876;4.736;2023-04-03T03:50:57;-1.10;99.90
8820;DHT22;4446;50.876;4.736;2023-04-03T03:53:24;-1.10;99.90
8820;DHT22;4446;50.876;4.736;2023-04-03T03:55:51;-1.10;99.90
8820;DHT22;4446;50.876;4.736;2023-04-03T03:58:18;-1.10;99.90
8820;DHT22;4446;50.876;4.736;2023-04-03T04:00:44;-1.20;99.90
8820;DHT22;4446;50.876;4.736;2023-04-03T04:03:11;-1.10;99.90
8820;DHT22;4446;50.876;4.736;2023-04-03T04:05:38;-1.10;99.90
8820;DHT22;4446;50.876;4.736;2023-04-03T04:08:07;-1.10;99.90
8820;DHT22;4446;50.876;4.736;2023-04-03T04:10:34;-1.20;99.90
8820;DHT22;4446;50.876;4.736;2023-04-03T04:13:01;-1.20;99.90
8820;DHT22;4446;50.876;4.736;2023-04-03T04:15:28;-1.10;99.90
8820;DHT22;4446;50.876;4.736;2023-04-03T04:17:56;-1.10;99.90
8820;DHT22;4446;50.876;4.736;2023-04-03T04:20:23;-1.10;99.90
8820;DHT22;4446;50.876;4.736;2023-04-03T04:22:50;-1.00;99.90
8820;DHT22;4446;50.876;4.736;2023-04-03T04:25:18;-1.00;99.90
8820;DHT22;4446;50.876;4.736;2023-04-03T04:27:45;-1.00;99.90
8820;DHT22;4446;50.876;4.736;2023-04-03T04:30:13;-0.90;99.90
8820;DHT22;4446;50.876;4.736;2023-04-03T04:32:40;-0.90;99.90
8820;DHT22;4446;50.876;4.736;2023-04-03T04:35:07;-0.90;99.90
8820;DHT22;4446;50.876;4.736;2023-04-03T04:37:35;-0.90;99.90
8820;DHT22;4446;50.876;4.736;2023-04-03T04:40:02;-0.90;99.90
8820;DHT22;4446;50.876;4.736;2023-04-03T04:42:30;-0.70;99.90
8820;DHT22;4446;50.876;4.736;2023-04-03T04:44:57;-0.70;99.90
8820;DHT22;4446;50.876;4.736;2023-04-03T04:47:24;-0.70;99.90
8820;DHT22;4446;50.876;4.736;2023-04-03T04:49:51;-0.70;99.90
8820;DHT22;4446;50.876;4.736;2023-04-03T04:52:17;-0.70;99.90
8820;DHT22;4446;50.876;4.736;2023-04-03T04:54:45;-0.70;99.90
8820;DHT22;4446;50.876;4.736;2023-04-03T04:57:11;-0.70;99.90
8820;DHT22;4446;50.876;4.736;2023-04-03T04:59:40;-0.70;99.90
8820;DHT22;4446;50.876;4.736;2023-04-03T05:02:06;-0.80;99.90
8820;DHT22;4446;50.876;4.736;2023-04-03T05:04:33;-0.90;99.90
8820;DHT22;4446;50.876;4.736;2023-04-03T05:07:00;-1.00;99.90
8820;DHT22;4446;50.876;4.736;2023-04-03T05:09:27;-1.10;99.90
8820;DHT22;4446;50.876;4.736;2023-04-03T05:11:54;-1.10;99.90
8820;DHT22;4446;50.876;4.736;2023-04-03T05:14:21;-1.20;99.90
8820;DHT22;4446;50.876;4.736;2023-04-03T05:16:50;-1.20;99.90
8820;DHT22;4446;50.876;4.736;2023-04-03T05:19:19;-1.20;99.90
8820;DHT22;4446;50.876;4.736;2023-04-03T05:21:46;-1.20;99.90
8820;DHT22;4446;50.876;4.736;2023-04-03T05:24:15;-1.20;99.90
8820;DHT22;4446;50.876;4.736;2023-04-03T05:26:42;-1.20;99.90
8820;DHT22;4446;50.876;4.736;2023-04-03T05:29:09;-1.20;99.90
8820;DHT22;4446;50.876;4.736;2023-04-03T05:31:36;-1.20;99.90
8820;DHT22;4446;50.876;4.736;2023-04-03T05:34:04;-1.20;99.90
8820;DHT22;4446;50.876;4.736;2023-04-03T05:36:31;-1.10;99.90
8820;DHT22;4446;50.876;4.736;2023-04-03T05:38:58;-1.10;99.90
8820;DHT22;4446;50.876;4.736;2023-04-03T05:41:25;-1.00;99.90
8820;DHT22;4446;50.876;4.736;2023-04-03T05:43:51;-0.90;99.90
8820;DHT22;4446;50.876;4.736;2023-04-03T05:46:19;-0.90;99.90
8820;DHT22;4446;50.876;4.736;2023-04-03T05:48:47;-0.70;99.90
8820;DHT22;4446;50.876;4.736;2023-04-03T05:51:17;-0.70;99.90
8820;DHT22;4446;50.876;4.736;2023-04-03T05:53:45;-0.60;99.90
8820;DHT22;4446;50.876;4.736;2023-04-03T05:56:13;-0.50;99.90
8820;DHT22;4446;50.876;4.736;2023-04-03T05:58:40;-0.50;99.90
8820;DHT22;4446;50.876;4.736;2023-04-03T06:01:07;-0.30;99.90
8820;DHT22;4446;50.876;4.736;2023-04-03T06:03:34;-0.20;99.90
8820;DHT22;4446;50.876;4.736;2023-04-03T06:06:04;0.00;99.90
8820;DHT22;4446;50.876;4.736;2023-04-03T06:08:32;0.10;99.90
8820;DHT22;4446;50.876;4.736;2023-04-03T06:11:00;0.20;99.90
8820;DHT22;4446;50.876;4.736;2023-04-03T06:13:27;0.30;99.90
8820;DHT22;4446;50.876;4.736;2023-04-03T06:15:55;0.40;99.90
8820;DHT22;4446;50.876;4.736;2023-04-03T06:18:22;0.40;99.90
8820;DHT22;4446;50.876;4.736;2023-04-03T06:20:49;0.50;99.90
8820;DHT22;4446;50.876;4.736;2023-04-03T06:23:16;0.60;99.90
8820;DHT22;4446;50.876;4.736;2023-04-03T06:25:44;0.70;99.90
8820;DHT22;4446;50.876;4.736;2023-04-03T06:28:11;0.80;99.90
8820;DHT22;4446;50.876;4.736;2023-04-03T06:30:38;0.80;99.90
8820;DHT22;4446;50.876;4.736;2023-04-03T06:33:05;1.00;99.90
8820;DHT22;4446;50.876;4.736;2023-04-03T06:35:32;1.00;99.90
8820;DHT22;4446;50.876;4.736;2023-04-03T06:38:00;1.10;99.90
8820;DHT22;4446;50.876;4.736;2023-04-03T06:40:29;1.20;99.90
8820;DHT22;4446;50.876;4.736;2023-04-03T06:42:58;1.20;99.90
8820;DHT22;4446;50.876;4.736;2023-04-03T06:45:24;1.30;99.90
8820;DHT22;4446;50.876;4.736;2023-04-03T06:47:52;1.30;99.90
8820;DHT22;4446;50.876;4.736;2023-04-03T06:50:19;1.40;99.90
8820;DHT22;4446;50.876;4.736;2023-04-03T06:52:46;1.50;99.90
8820;DHT22;4446;50.876;4.736;2023-04-03T06:55:13;1.60;99.90
8820;DHT22;4446;50.876;4.736;2023-04-03T06:57:39;1.60;99.90
8820;DHT22;4446;50.876;4.736;2023-04-03T07:00:10;1.70;99.90
8820;DHT22;4446;50.876;4.736;2023-04-03T07:02:37;1.70;99.90
8820;DHT22;4446;50.876;4.736;2023-04-03T07:05:05;1.80;99.90
8820;DHT22;4446;50.876;4.736;2023-04-03T07:07:32;1.90;99.90
8820;DHT22;4446;50.876;4.736;2023-04-03T07:09:59;2.00;99.90
8820;DHT22;4446;50.876;4.736;2023-04-03T07:12:26;2.00;99.90
8820;DHT22;4446;50.876;4.736;2023-04-03T07:14:53;2.10;99.90
8820;DHT22;4446;50.876;4.736;2023-04-03T07:17:21;2.10;99.90
8820;DHT22;4446;50.876;4.736;2023-04-03T07:19:48;2.20;99.90
8820;DHT22;4446;50.876;4.736;2023-04-03T07:22:16;2.30;99.90
8820;DHT22;4446;50.876;4.736;2023-04-03T07:24:43;2.40;99.90
8820;DHT22;4446;50.876;4.736;2023-04-03T07:27:10;2.50;99.90
8820;DHT22;4446;50.876;4.736;2023-04-03T07:29:38;2.60;99.90
8820;DHT22;4446;50.876;4.736;2023-04-03T07:32:05;2.60;99.90
8820;DHT22;4446;50.876;4.736;2023-04-03T07:34:34;2.70;99.90
8820;DHT22;4446;50.876;4.736;2023-04-03T07:37:01;2.80;99.90
8820;DHT22;4446;50.876;4.736;2023-04-03T07:39:29;2.90;99.90
8820;DHT22;4446;50.876;4.736;2023-04-03T07:41:55;3.00;99.90
8820;DHT22;4446;50.876;4.736;2023-04-03T07:44:22;3.10;99.90
8820;DHT22;4446;50.876;4.736;2023-04-03T07:46:49;3.20;99.90
8820;DHT22;4446;50.876;4.736;2023-04-03T07:49:17;3.30;99.90
8820;DHT22;4446;50.876;4.736;2023-04-03T07:51:45;3.40;99.90
8820;DHT22;4446;50.876;4.736;2023-04-03T07:54:14;3.50;99.90
8820;DHT22;4446;50.876;4.736;2023-04-03T07:56:41;3.60;99.90
8820;DHT22;4446;50.876;4.736;2023-04-03T07:59:08;3.60;99.90
8820;DHT22;4446;50.876;4.736;2023-04-03T08:01:35;3.70;99.90
8820;DHT22;4446;50.876;4.736;2023-04-03T08:04:02;3.80;99.90
8820;DHT22;4446;50.876;4.736;2023-04-03T08:06:31;3.90;99.90
8820;DHT22;4446;50.876;4.736;2023-04-03T08:09:01;4.10;99.90
8820;DHT22;4446;50.876;4.736;2023-04-03T08:11:29;4.20;99.90
8820;DHT22;4446;50.876;4.736;2023-04-03T08:13:56;4.20;99.90
8820;DHT22;4446;50.876;4.736;2023-04-03T08:16:24;4.30;99.90
8820;DHT22;4446;50.876;4.736;2023-04-03T08:18:52;4.40;99.90
8820;DHT22;4446;50.876;4.736;2023-04-03T08:21:19;4.50;99.90
8820;DHT22;4446;50.876;4.736;2023-04-03T08:23:48;4.50;99.90
8820;DHT22;4446;50.876;4.736;2023-04-03T08:26:19;4.60;99.90
8820;DHT22;4446;50.876;4.736;2023-04-03T08:28:46;4.70;99.90
8820;DHT22;4446;50.876;4.736;2023-04-03T08:31:15;4.80;99.90
8820;DHT22;4446;50.876;4.736;2023-04-03T08:33:43;4.90;99.90
8820;DHT22;4446;50.876;4.736;2023-04-03T08:36:18;5.00;99.90
8820;DHT22;4446;50.876;4.736;2023-04-03T08:38:45;5.10;99.90
8820;DHT22;4446;50.876;4.736;2023-04-03T08:41:20;5.20;99.90
8820;DHT22;4446;50.876;4.736;2023-04-03T08:44:13;5.30;99.90
8820;DHT22;4446;50.876;4.736;2023-04-03T08:46:52;5.50;99.90
8820;DHT22;4446;50.876;4.736;2023-04-03T08:49:26;5.50;99.90
8820;DHT22;4446;50.876;4.736;2023-04-03T08:51:55;5.60;99.90
8820;DHT22;4446;50.876;4.736;2023-04-03T08:54:30;5.70;99.90
8820;DHT22;4446;50.876;4.736;2023-04-03T08:57:02;5.80;99.90
8820;DHT22;4446;50.876;4.736;2023-04-03T08:59:34;5.80;99.90
8820;DHT22;4446;50.876;4.736;2023-04-03T09:02:04;5.90;99.90
8820;DHT22;4446;50.876;4.736;2023-04-03T09:04:40;6.00;99.90
8820;DHT22;4446;50.876;4.736;2023-04-03T09:07:13;6.00;99.90
8820;DHT22;4446;50.876;4.736;2023-04-03T09:09:42;6.10;99.90
8820;DHT22;4446;50.876;4.736;2023-04-03T09:12:26;6.20;99.90
8820;DHT22;4446;50.876;4.736;2023-04-03T09:15:02;6.30;99.90
8820;DHT22;4446;50.876;4.736;2023-04-03T09:17:41;6.40;99.90
8820;DHT22;4446;50.876;4.736;2023-04-03T09:20:17;6.50;99.90
8820;DHT22;4446;50.876;4.736;2023-04-03T09:22:46;6.50;99.90
8820;DHT22;4446;50.876;4.736;2023-04-03T09:25:17;6.60;99.90
8820;DHT22;4446;50.876;4.736;2023-04-03T09:27:46;6.60;99.90
8820;DHT22;4446;50.876;4.736;2023-04-03T09:30:14;6.70;99.90
8820;DHT22;4446;50.876;4.736;2023-04-03T09:32:45;6.70;99.90
8820;DHT22;4446;50.876;4.736;2023-04-03T09:35:24;6.80;99.90
8820;DHT22;4446;50.876;4.736;2023-04-03T09:37:52;6.90;99.90
8820;DHT22;4446;50.876;4.736;2023-04-03T09:40:32;6.90;99.90
8820;DHT22;4446;50.876;4.736;2023-04-03T09:43:16;6.90;99.90
8820;DHT22;4446;50.876;4.736;2023-04-03T09:45:46;6.90;99.90
8820;DHT22;4446;50.876;4.736;2023-04-03T09:48:16;7.00;99.90
8820;DHT22;4446;50.876;4.736;2023-04-03T09:50:59;7.10;99.90
8820;DHT22;4446;50.876;4.736;2023-04-03T09:53:30;7.20;99.90
8820;DHT22;4446;50.876;4.736;2023-04-03T09:55:57;7.30;99.90
8820;DHT22;4446;50.876;4.736;2023-04-03T09:58:27;7.30;99.90
8820;DHT22;4446;50.876;4.736;2023-04-03T10:00:57;7.30;99.90
8820;DHT22;4446;50.876;4.736;2023-04-03T10:03:28;7.50;99.90
8820;DHT22;4446;50.876;4.736;2023-04-03T10:05:55;7.60;99.90
8820;DHT22;4446;50.876;4.736;2023-04-03T10:08:26;7.60;99.90
8820;DHT22;4446;50.876;4.736;2023-04-03T10:11:14;7.60;99.90
8820;DHT22;4446;50.876;4.736;2023-04-03T10:13:54;7.70;99.90
8820;DHT22;4446;50.876;4.736;2023-04-03T10:16:27;7.70;99.90
8820;DHT22;4446;50.876;4.736;2023-04-03T10:19:05;7.80;99.90
8820;DHT22;4446;50.876;4.736;2023-04-03T10:21:42;7.80;99.90
8820;DHT22;4446;50.876;4.736;2023-04-03T10:24:14;7.80;99.90
8820;DHT22;4446;50.876;4.736;2023-04-03T10:26:51;7.80;99.90
8820;DHT22;4446;50.876;4.736;2023-04-03T10:29:31;7.80;99.90
8820;DHT22;4446;50.876;4.736;2023-04-03T10:32:09;7.90;99.90
8820;DHT22;4446;50.876;4.736;2023-04-03T10:34:41;8.00;99.90
8820;DHT22;4446;50.876;4.736;2023-04-03T10:37:16;8.00;99.90
8820;DHT22;4446;50.876;4.736;2023-04-03T10:39:52;8.10;99.90
8820;DHT22;4446;50.876;4.736;2023-04-03T10:42:27;8.20;99.90
8820;DHT22;4446;50.876;4.736;2023-04-03T10:45:14;8.20;99.90
8820;DHT22;4446;50.876;4.736;2023-04-03T10:47:52;8.30;99.90
8820;DHT22;4446;50.876;4.736;2023-04-03T10:50:31;8.30;99.90
8820;DHT22;4446;50.876;4.736;2023-04-03T10:53:04;8.30;99.90
8820;DHT22;4446;50.876;4.736;2023-04-03T10:55:37;8.30;99.90
8820;DHT22;4446;50.876;4.736;2023-04-03T10:58:14;8.30;99.90
8820;DHT22;4446;50.876;4.736;2023-04-03T11:00:49;8.40;99.90
8820;DHT22;4446;50.876;4.736;2023-04-03T11:03:27;8.40;99.90
8820;DHT22;4446;50.876;4.736;2023-04-03T11:05:57;8.40;99.90
8820;DHT22;4446;50.876;4.736;2023-04-03T11:08:28;8.40;99.90
8820;DHT22;4446;50.876;4.736;2023-04-03T11:11:01;8.40;99.90
8820;DHT22;4446;50.876;4.736;2023-04-03T11:13:34;8.50;99.90
8820;DHT22;4446;50.876;4.736;2023-04-03T11:16:03;8.50;99.90
8820;DHT22;4446;50.876;4.736;2023-04-03T11:18:35;8.60;99.90
8820;DHT22;4446;50.876;4.736;2023-04-03T11:21:07;8.70;99.90
8820;DHT22;4446;50.876;4.736;2023-04-03T11:23:37;8.70;99.90
8820;DHT22;4446;50.876;4.736;2023-04-03T11:26:10;8.60;99.90
8820;DHT22;4446;50.876;4.736;2023-04-03T11:28:37;8.50;99.90
8820;DHT22;4446;50.876;4.736;2023-04-03T11:31:19;8.50;99.90
8820;DHT22;4446;50.876;4.736;2023-04-03T11:33:55;8.70;99.90
8820;DHT22;4446;50.876;4.736;2023-04-03T11:36:27;8.80;99.90
8820;DHT22;4446;50.876;4.736;2023-04-03T11:38:59;8.90;99.90
8820;DHT22;4446;50.876;4.736;2023-04-03T11:41:29;8.90;99.90
8820;DHT22;4446;50.876;4.736;2023-04-03T11:44:00;8.80;99.90
8820;DHT22;4446;50.876;4.736;2023-04-03T11:46:50;8.80;99.90
8820;DHT22;4446;50.876;4.736;2023-04-03T11:49:50;8.90;99.90
8820;DHT22;4446;50.876;4.736;2023-04-03T11:58:22;9.00;99.90
8820;DHT22;4446;50.876;4.736;2023-04-03T12:01:08;9.10;99.90
8820;DHT22;4446;50.876;4.736;2023-04-03T12:04:09;9.20;99.90
8820;DHT22;4446;50.876;4.736;2023-04-03T12:10:18;9.40;99.90
8820;DHT22;4446;50.876;4.736;2023-04-03T12:12:56;9.50;99.90
8820;DHT22;4446;50.876;4.736;2023-04-03T12:15:54;9.40;99.90
8820;DHT22;4446;50.876;4.736;2023-04-03T12:18:43;9.50;99.90
8820;DHT22;4446;50.876;4.736;2023-04-03T12:21:13;9.50;99.90
8820;DHT22;4446;50.876;4.736;2023-04-03T12:23:59;9.60;99.90
8820;DHT22;4446;50.876;4.736;2023-04-03T12:26:31;9.60;99.90
8820;DHT22;4446;50.876;4.736;2023-04-03T12:28:59;9.70;99.90
8820;DHT22;4446;50.876;4.736;2023-04-03T12:31:39;9.80;99.90
8820;DHT22;4446;50.876;4.736;2023-04-03T12:34:18;9.80;99.90
8820;DHT22;4446;50.876;4.736;2023-04-03T12:36:59;9.90;99.90
8820;DHT22;4446;50.876;4.736;2023-04-03T12:39:41;10.00;99.90
8820;DHT22;4446;50.876;4.736;2023-04-03T12:42:25;10.00;99.90
8820;DHT22;4446;50.876;4.736;2023-04-03T12:45:02;10.20;99.90
8820;DHT22;4446;50.876;4.736;2023-04-03T12:47:37;10.20;99.90
8820;DHT22;4446;50.876;4.736;2023-04-03T12:50:17;10.10;99.90
8820;DHT22;4446;50.876;4.736;2023-04-03T12:52:52;10.20;99.90
8820;DHT22;4446;50.876;4.736;2023-04-03T12:55:21;10.30;99.90
8820;DHT22;4446;50.876;4.736;2023-04-03T12:57:48;10.20;99.90
8820;DHT22;4446;50.876;4.736;2023-04-03T13:00:27;10.20;99.90
8820;DHT22;4446;50.876;4.736;2023-04-03T13:02:54;10.30;99.90
8820;DHT22;4446;50.876;4.736;2023-04-03T13:05:23;10.40;99.90
8820;DHT22;4446;50.876;4.736;2023-04-03T13:07:56;10.20;99.90
8820;DHT22;4446;50.876;4.736;2023-04-03T13:10:24;10.30;99.90
8820;DHT22;4446;50.876;4.736;2023-04-03T13:12:52;10.40;99.90
8820;DHT22;4446;50.876;4.736;2023-04-03T13:15:20;10.40;99.90
8820;DHT22;4446;50.876;4.736;2023-04-03T13:17:49;10.40;99.90
8820;DHT22;4446;50.876;4.736;2023-04-03T13:20:22;10.50;99.90
8820;DHT22;4446;50.876;4.736;2023-04-03T13:22:55;10.60;99.90
8820;DHT22;4446;50.876;4.736;2023-04-03T13:25:24;10.60;99.90
8820;DHT22;4446;50.876;4.736;2023-04-03T13:27:52;10.70;99.90
8820;DHT22;4446;50.876;4.736;2023-04-03T13:30:28;10.90;99.90
8820;DHT22;4446;50.876;4.736;2023-04-03T13:32:58;11.00;99.90
8820;DHT22;4446;50.876;4.736;2023-04-03T13:35:35;11.10;99.90
8820;DHT22;4446;50.876;4.736;2023-04-03T13:38:06;11.00;99.90
8820;DHT22;4446;50.876;4.736;2023-04-03T13:40:33;11.00;99.90
8820;DHT22;4446;50.876;4.736;2023-04-03T13:43:02;11.10;99.90
8820;DHT22;4446;50.876;4.736;2023-04-03T13:45:30;11.20;99.10
8820;DHT22;4446;50.876;4.736;2023-04-03T13:48:09;11.20;98.70
8820;DHT22;4446;50.876;4.736;2023-04-03T13:50:56;11.00;97.90
8820;DHT22;4446;50.876;4.736;2023-04-03T13:53:26;10.90;98.20
8820;DHT22;4446;50.876;4.736;2023-04-03T13:56:00;11.00;97.60
8820;DHT22;4446;50.876;4.736;2023-04-03T13:58:31;11.10;97.50
8820;DHT22;4446;50.876;4.736;2023-04-03T14:01:06;11.20;97.70
8820;DHT22;4446;50.876;4.736;2023-04-03T14:03:40;11.30;98.10
8820;DHT22;4446;50.876;4.736;2023-04-03T14:06:11;11.40;99.00
8820;DHT22;4446;50.876;4.736;2023-04-03T14:08:40;11.40;98.90
8820;DHT22;4446;50.876;4.736;2023-04-03T14:11:13;11.60;99.00
8820;DHT22;4446;50.876;4.736;2023-04-03T14:13:41;11.60;98.40
8820;DHT22;4446;50.876;4.736;2023-04-03T14:16:12;11.70;97.60
8820;DHT22;4446;50.876;4.736;2023-04-03T14:18:40;12.00;97.30
8820;DHT22;4446;50.876;4.736;2023-04-03T14:21:07;12.60;97.50
8820;DHT22;4446;50.876;4.736;2023-04-03T14:23:34;13.20;96.50
8820;DHT22;4446;50.876;4.736;2023-04-03T14:26:02;13.80;95.40
8820;DHT22;4446;50.876;4.736;2023-04-03T14:28:31;14.00;94.20
8820;DHT22;4446;50.876;4.736;2023-04-03T14:30:58;14.20;92.90
8820;DHT22;4446;50.876;4.736;2023-04-03T14:33:25;14.20;93.90
8820;DHT22;4446;50.876;4.736;2023-04-03T14:35:54;14.40;94.00
8820;DHT22;4446;50.876;4.736;2023-04-03T14:38:24;14.40;93.70
8820;DHT22;4446;50.876;4.736;2023-04-03T14:40:52;14.50;93.40
8820;DHT22;4446;50.876;4.736;2023-04-03T14:43:20;14.60;92.80
8820;DHT22;4446;50.876;4.736;2023-04-03T14:45:48;14.60;92.40
8820;DHT22;4446;50.876;4.736;2023-04-03T14:48:18;14.90;91.50
8820;DHT22;4446;50.876;4.736;2023-04-03T14:50:46;14.80;92.20
8820;DHT22;4446;50.876;4.736;2023-04-03T14:53:14;14.90;91.50
8820;DHT22;4446;50.876;4.736;2023-04-03T14:55:43;15.40;91.90
8820;DHT22;4446;50.876;4.736;2023-04-03T14:58:13;15.70;90.80
8820;DHT22;4446;50.876;4.736;2023-04-03T15:00:42;15.80;90.90
8820;DHT22;4446;50.876;4.736;2023-04-03T15:03:13;16.00;90.60
8820;DHT22;4446;50.876;4.736;2023-04-03T15:05:41;16.20;90.80
8820;DHT22;4446;50.876;4.736;2023-04-03T15:08:17;15.90;88.00
8820;DHT22;4446;50.876;4.736;2023-04-03T15:10:44;15.70;88.40
8820;DHT22;4446;50.876;4.736;2023-04-03T15:13:12;15.60;89.20
8820;DHT22;4446;50.876;4.736;2023-04-03T15:15:39;15.50;90.30
8820;DHT22;4446;50.876;4.736;2023-04-03T15:18:13;15.60;89.80
8820;DHT22;4446;50.876;4.736;2023-04-03T15:20:41;15.80;89.00
8820;DHT22;4446;50.876;4.736;2023-04-03T15:23:09;15.70;90.20
8820;DHT22;4446;50.876;4.736;2023-04-03T15:25:37;15.60;89.70
8820;DHT22;4446;50.876;4.736;2023-04-03T15:28:05;15.70;90.50
8820;DHT22;4446;50.876;4.736;2023-04-03T15:30:41;15.50;88.70
8820;DHT22;4446;50.876;4.736;2023-04-03T15:33:09;15.50;88.90
8820;DHT22;4446;50.876;4.736;2023-04-03T15:35:36;15.50;88.80
8820;DHT22;4446;50.876;4.736;2023-04-03T15:38:03;15.70;89.40
8820;DHT22;4446;50.876;4.736;2023-04-03T15:40:30;16.00;88.10
8820;DHT22;4446;50.876;4.736;2023-04-03T15:42:57;16.30;88.30
8820;DHT22;4446;50.876;4.736;2023-04-03T15:45:24;16.40;86.80
8820;DHT22;4446;50.876;4.736;2023-04-03T15:47:51;16.30;87.20
8820;DHT22;4446;50.876;4.736;2023-04-03T15:50:19;16.10;87.10
8820;DHT22;4446;50.876;4.736;2023-04-03T15:52:48;16.10;86.70
8820;DHT22;4446;50.876;4.736;2023-04-03T15:55:19;15.90;87.90
8820;DHT22;4446;50.876;4.736;2023-04-03T15:57:46;15.70;87.20
8820;DHT22;4446;50.876;4.736;2023-04-03T16:00:14;15.80;86.90
8820;DHT22;4446;50.876;4.736;2023-04-03T16:02:41;15.50;86.20
8820;DHT22;4446;50.876;4.736;2023-04-03T16:05:09;15.40;89.50
8820;DHT22;4446;50.876;4.736;2023-04-03T16:07:38;15.40;89.40
8820;DHT22;4446;50.876;4.736;2023-04-03T16:10:07;15.90;87.40
8820;DHT22;4446;50.876;4.736;2023-04-03T16:12:35;15.80;85.80
8820;DHT22;4446;50.876;4.736;2023-04-03T16:15:03;15.70;88.00
8820;DHT22;4446;50.876;4.736;2023-04-03T16:17:32;15.90;85.70
8820;DHT22;4446;50.876;4.736;2023-04-03T16:19:59;15.80;87.40
8820;DHT22;4446;50.876;4.736;2023-04-03T16:22:27;15.80;83.70
8820;DHT22;4446;50.876;4.736;2023-04-03T16:24:56;15.60;86.00
8820;DHT22;4446;50.876;4.736;2023-04-03T16:27:23;15.50;87.50
8820;DHT22;4446;50.876;4.736;2023-04-03T16:29:53;15.40;86.10
8820;DHT22;4446;50.876;4.736;2023-04-03T16:32:20;15.40;87.00
8820;DHT22;4446;50.876;4.736;2023-04-03T16:34:47;15.40;86.90
8820;DHT22;4446;50.876;4.736;2023-04-03T16:37:14;15.40;87.10
8820;DHT22;4446;50.876;4.736;2023-04-03T16:39:42;15.60;86.30
8820;DHT22;4446;50.876;4.736;2023-04-03T16:42:10;15.50;84.60